首页
METAR-TAF:

METAR-TAF

机场 :

克里斯蒂亚诺·罗纳尔多机场

丰沙尔, 馬德拉群岛, 葡萄牙

纬度: 32-41-52N, 经度: 016-46-28W, 海拔: 59米

当前天气观测

该预报发布于38分钟前的07:30 UTC
风速2节,风向多变
温度 20°C
湿度 78%
气压 1017 hPa
能见度10公里或以上
少量云层高于1500英尺

METAR: LPMA 230730Z VRB02KT 9999 FEW015 20/16 Q1017

时间: 09:08 (08:08 UTC)

预报

该预报发布于3小时和8分钟前的05:00 UTC
预报有效从23日的 06点(UTC)到 24日的 06点(UTC)
风速5节,风向多变
能见度10公里或以上
散云层高于1500英尺
成为
从 23日的 07点(UTC)到 23日的 09点(UTC)
风速7节,风向南转西南
成为
从 23日的 18点(UTC)到 23日的 20点(UTC)
风速5节,风向多变

TAF: LPMA 230500Z 2306/2406 VRB05KT 9999 SCT015 BECMG 2307/2309 20007KT BECMG 2318/2320 VRB05KT

超过4000个机场的气象观测和天气预报(METAR&TAF报告)。

可查询的气象台以黄色和红色小点在地图上表示。

将鼠标移到小点上方,可查看气象台名称。

然后点击查看天气观测和预报。

如需切换地图:点击带黑十字的绿色按钮放大地图;点击带横线的绿色按钮缩小地图;或者点击绿色箭头查看邻近地区的地图。


METAR-TAF: